Time;durP1;ratioP1;P1;durP2;ratioP2;P2;SDS_P1;SDS_P2;PMS_P1;PMS_P2;Temp;Humidity;BMP_temperature;BMP_pressure;BME280_temperature;BME280_humidity;BME280_pressure;Samples;Min_cycle;Max_cycle;Signal;HPM_P1;HPM_P2
2023/04/29 00:01:07;;;;;;;20.73;14.83;;;12.60;99.90;;;;;;5101354;28;20812;-60
2023/04/29 00:03:34;;;;;;;24.33;17.13;;;12.60;99.90;;;;;;5101666;28;20407;-60
2023/04/29 00:06:01;;;;;;;27.83;18.30;;;12.60;99.90;;;;;;5100368;28;20441;-59
2023/04/29 00:08:28;;;;;;;26.33;15.70;;;12.60;99.90;;;;;;5099598;28;20441;-61
2023/04/29 00:10:55;;;;;;;23.87;15.93;;;12.50;99.90;;;;;;5099715;28;20505;-60
2023/04/29 00:13:23;;;;;;;25.60;18.00;;;12.50;99.90;;;;;;5099388;28;20453;-60
2023/04/29 00:15:50;;;;;;;25.33;17.50;;;12.40;99.90;;;;;;5097598;28;20486;-60
2023/04/29 00:18:16;;;;;;;31.50;19.03;;;12.40;99.90;;;;;;5097829;28;20449;-61
2023/04/29 00:20:43;;;;;;;32.63;20.90;;;12.40;99.90;;;;;;5099094;28;20838;-59
2023/04/29 00:23:10;;;;;;;35.17;20.10;;;12.40;99.90;;;;;;5098950;28;20468;-60
2023/04/29 00:25:37;;;;;;;38.50;22.37;;;12.40;99.90;;;;;;5099106;28;20450;-59
2023/04/29 00:28:04;;;;;;;37.30;22.23;;;12.30;99.90;;;;;;5100001;28;20473;-60
2023/04/29 00:30:33;;;;;;;38.93;22.23;;;12.30;99.90;;;;;;5100251;28;20668;-59
2023/04/29 00:33:00;;;;;;;39.40;22.10;;;12.30;99.90;;;;;;5099175;28;20458;-59
2023/04/29 00:35:27;;;;;;;38.10;22.33;;;12.30;99.90;;;;;;5099017;28;20449;-60
2023/04/29 00:37:53;;;;;;;37.63;22.73;;;12.20;99.90;;;;;;5099634;28;20488;-61
2023/04/29 00:40:20;;;;;;;38.50;23.43;;;12.20;99.90;;;;;;5099632;28;20533;-61
2023/04/29 00:42:47;;;;;;;35.33;20.27;;;12.20;99.90;;;;;;5100069;28;20458;-60
2023/04/29 00:45:14;;;;;;;40.13;24.47;;;12.20;99.90;;;;;;5099727;28;20453;-61
2023/04/29 00:47:42;;;;;;;39.00;23.63;;;12.20;99.90;;;;;;5099841;28;20449;-60
2023/04/29 00:50:09;;;;;;;36.60;23.10;;;12.20;99.90;;;;;;5098568;28;20451;-60
2023/04/29 00:52:38;;;;;;;38.20;22.10;;;12.20;99.90;;;;;;5098881;28;20972;-60
2023/04/29 00:55:06;;;;;;;35.90;22.30;;;12.10;99.90;;;;;;5098419;28;20819;-60
2023/04/29 00:57:33;;;;;;;32.00;20.23;;;12.10;99.90;;;;;;5097830;28;20482;-60
2023/04/29 01:00:00;;;;;;;36.07;21.57;;;12.10;99.90;;;;;;5097901;28;20446;-60
2023/04/29 01:02:28;;;;;;;33.77;22.07;;;12.10;99.90;;;;;;5097374;28;20478;-61
2023/04/29 01:04:56;;;;;;;35.47;20.43;;;12.10;99.90;;;;;;5097397;28;20483;-61
2023/04/29 01:07:30;;;;;;;33.70;21.90;;;12.10;99.90;;;;;;5097248;28;20445;-60
2023/04/29 01:10:03;;;;;;;39.17;21.87;;;12.00;99.90;;;;;;5097677;28;20437;-61
2023/04/29 01:12:38;;;;;;;31.63;21.70;;;11.90;99.90;;;;;;5098200;28;20519;-61
2023/04/29 01:15:12;;;;;;;34.00;20.53;;;11.90;99.90;;;;;;5097810;28;20433;-60
2023/04/29 01:17:41;;;;;;;36.47;20.57;;;11.80;99.90;;;;;;5098219;28;20469;-60
2023/04/29 01:20:11;;;;;;;37.30;21.17;;;11.70;99.90;;;;;;5097535;28;20442;-61
2023/04/29 01:22:39;;;;;;;42.07;23.20;;;11.70;99.90;;;;;;5097332;28;20454;-61
2023/04/29 01:25:08;;;;;;;43.10;21.90;;;11.60;99.90;;;;;;5097123;28;20499;-60
2023/04/29 01:27:42;;;;;;;35.30;20.77;;;11.60;99.90;;;;;;5096552;28;20442;-60
2023/04/29 01:30:16;;;;;;;33.40;20.30;;;11.60;99.90;;;;;;5097027;28;20423;-60
2023/04/29 01:32:58;;;;;;;36.00;21.27;;;11.50;99.90;;;;;;5097264;28;20469;-60
2023/04/29 01:35:46;;;;;;;30.93;19.67;;;11.50;99.90;;;;;;5097529;28;20438;-59
2023/04/29 01:38:23;;;;;;;32.43;19.60;;;11.50;99.90;;;;;;5097093;28;20458;-61
2023/04/29 01:41:00;;;;;;;35.57;20.30;;;11.50;99.90;;;;;;5097844;28;20430;-60
2023/04/29 01:43:30;;;;;;;41.40;19.50;;;11.40;99.90;;;;;;5097293;28;20430;-61
2023/04/29 01:45:58;;;;;;;30.97;19.70;;;11.40;99.90;;;;;;5097005;28;20496;-60
2023/04/29 01:48:25;;;;;;;33.27;19.47;;;11.30;99.90;;;;;;5096346;28;20819;-61
2023/04/29 01:50:51;;;;;;;39.20;21.07;;;11.30;99.90;;;;;;5096363;28;20959;-61
2023/04/29 01:53:18;;;;;;;40.27;23.17;;;11.30;99.90;;;;;;5096303;28;20458;-61
2023/04/29 01:55:45;;;;;;;36.20;22.23;;;11.30;99.90;;;;;;5096442;28;20443;-61
2023/04/29 01:58:13;;;;;;;40.10;22.60;;;11.30;99.90;;;;;;5096280;28;20474;-61
2023/04/29 02:00:41;;;;;;;43.47;24.57;;;11.20;99.90;;;;;;5096338;28;20457;-60
2023/04/29 02:03:08;;;;;;;38.57;22.50;;;11.30;99.90;;;;;;5096189;22;20499;-62
2023/04/29 02:05:35;;;;;;;38.90;22.33;;;11.20;99.90;;;;;;5075076;28;20447;-62
2023/04/29 02:08:02;;;;;;;37.57;21.77;;;11.20;99.90;;;;;;5075258;28;20443;-62
2023/04/29 02:10:29;;;;;;;38.20;22.73;;;11.20;99.90;;;;;;5074982;28;20567;-63
2023/04/29 02:12:56;;;;;;;36.23;21.90;;;11.20;99.90;;;;;;5088851;28;20549;-62
2023/04/29 02:15:26;;;;;;;35.83;21.83;;;11.20;99.90;;;;;;5095183;28;20442;-61
2023/04/29 02:17:53;;;;;;;38.33;21.27;;;11.20;99.90;;;;;;5095098;28;20478;-61
2023/04/29 02:20:20;;;;;;;37.10;22.00;;;11.10;99.90;;;;;;5095099;28;20450;-62
2023/04/29 02:22:46;;;;;;;41.30;21.13;;;11.10;99.90;;;;;;5094954;28;20466;-63
2023/04/29 02:25:13;;;;;;;35.70;20.53;;;11.10;99.90;;;;;;5095005;28;20442;-63
2023/04/29 02:27:40;;;;;;;36.60;20.53;;;11.00;99.90;;;;;;5094621;28;20439;-63
2023/04/29 02:30:08;;;;;;;37.33;22.00;;;11.00;99.90;;;;;;5094821;28;20568;-62
2023/04/29 02:32:38;;;;;;;41.47;21.60;;;11.00;99.90;;;;;;5094760;28;20463;-63
2023/04/29 02:35:05;;;;;;;44.00;25.50;;;11.00;99.90;;;;;;5094713;28;20800;-62
2023/04/29 02:37:32;;;;;;;45.17;23.27;;;11.00;99.90;;;;;;5094598;28;20478;-62
2023/04/29 02:39:59;;;;;;;50.20;26.13;;;10.90;99.90;;;;;;5094547;28;20442;-62
2023/04/29 02:42:25;;;;;;;44.73;26.60;;;10.90;99.90;;;;;;5094553;28;20825;-62
2023/04/29 02:44:52;;;;;;;57.03;27.17;;;10.80;99.90;;;;;;5094157;28;20442;-61
2023/04/29 02:47:19;;;;;;;45.73;26.17;;;10.80;99.90;;;;;;5094529;28;20443;-61
2023/04/29 02:49:47;;;;;;;47.27;26.47;;;10.70;99.90;;;;;;5093603;28;20446;-61
2023/04/29 02:52:15;;;;;;;53.80;27.23;;;10.60;99.90;;;;;;5094042;28;20469;-62
2023/04/29 02:54:42;;;;;;;51.05;28.23;;;10.60;99.90;;;;;;5094533;28;20446;-61
2023/04/29 02:57:09;;;;;;;51.65;27.63;;;10.60;99.90;;;;;;5094288;28;20216;-61
2023/04/29 02:59:36;;;;;;;43.88;26.15;;;10.60;99.90;;;;;;5094263;28;20229;-63
2023/04/29 03:02:03;;;;;;;43.13;25.45;;;10.50;99.90;;;;;;5094006;28;20233;-62
2023/04/29 03:04:30;;;;;;;41.80;24.23;;;10.50;99.90;;;;;;5094001;28;20670;-61
2023/04/29 03:06:58;;;;;;;42.03;24.77;;;10.50;99.90;;;;;;5093758;28;20196;-62
2023/04/29 03:09:25;;;;;;;34.03;22.75;;;10.40;99.90;;;;;;5094195;28;20556;-61
2023/04/29 03:11:52;;;;;;;35.58;23.20;;;10.40;99.90;;;;;;5093970;28;20220;-61
2023/04/29 03:14:18;;;;;;;36.70;24.02;;;10.40;99.90;;;;;;5094465;28;20670;-61
2023/04/29 03:16:45;;;;;;;30.27;21.67;;;10.40;99.90;;;;;;5095050;28;20230;-62
2023/04/29 03:19:12;;;;;;;31.92;22.85;;;10.30;99.90;;;;;;5094618;28;20202;-61
2023/04/29 03:21:38;;;;;;;31.63;21.30;;;10.30;99.90;;;;;;5094257;28;20224;-62
2023/04/29 03:24:07;;;;;;;29.73;21.77;;;10.30;99.90;;;;;;5093766;28;20306;-61
2023/04/29 03:26:33;;;;;;;26.55;20.15;;;10.30;99.90;;;;;;5094097;28;20442;-61
2023/04/29 03:29:00;;;;;;;28.67;22.45;;;10.20;99.90;;;;;;5093862;28;20564;-61
2023/04/29 03:31:27;;;;;;;31.77;22.52;;;10.20;99.90;;;;;;5094612;28;20208;-63
2023/04/29 03:33:54;;;;;;;29.63;22.55;;;10.20;99.90;;;;;;5094033;28;20200;-61
2023/04/29 03:36:21;;;;;;;29.77;22.63;;;10.20;99.90;;;;;;5093575;28;20287;-61
2023/04/29 03:38:47;;;;;;;34.17;25.45;;;10.20;99.90;;;;;;5092897;28;20693;-61
2023/04/29 03:41:16;;;;;;;33.85;25.88;;;10.10;99.90;;;;;;5093493;28;20204;-61
2023/04/29 03:43:43;;;;;;;37.28;26.35;;;10.10;99.90;;;;;;5093376;28;20200;-61
2023/04/29 03:46:10;;;;;;;37.35;26.52;;;10.00;99.90;;;;;;5093341;28;20200;-62
2023/04/29 03:48:37;;;;;;;36.00;25.73;;;10.00;99.90;;;;;;5093275;28;20219;-61
2023/04/29 03:51:04;;;;;;;35.53;26.92;;;10.00;99.90;;;;;;5093427;28;20215;-61
2023/04/29 03:53:31;;;;;;;41.72;30.23;;;10.00;99.90;;;;;;5093159;28;20227;-61
2023/04/29 03:55:58;;;;;;;34.43;27.20;;;9.90;99.90;;;;;;5093170;28;20243;-61
2023/04/29 03:58:26;;;;;;;39.45;27.90;;;10.00;99.90;;;;;;5093213;28;20485;-62
2023/04/29 04:00:53;;;;;;;42.53;29.38;;;9.90;99.90;;;;;;5093337;28;20212;-60
2023/04/29 04:03:21;;;;;;;40.03;27.83;;;9.90;99.90;;;;;;5093141;28;20273;-61
2023/04/29 04:05:48;;;;;;;45.88;30.83;;;9.90;99.90;;;;;;5093186;28;20207;-60
2023/04/29 04:11:36;;;;;;;44.97;29.38;;;9.90;99.90;;;;;;5108878;27;1242397;-62
2023/04/29 04:14:04;;;;;;;47.15;29.38;;;9.90;99.90;;;;;;5130733;28;20203;-62
2023/04/29 04:16:31;;;;;;;49.53;32.20;;;9.80;99.90;;;;;;5131679;28;20294;-62
2023/04/29 04:18:58;;;;;;;49.83;29.05;;;9.80;99.90;;;;;;5131209;28;20202;-62
2023/04/29 04:21:26;;;;;;;46.03;29.83;;;9.80;99.90;;;;;;5130821;27;20566;-62
2023/04/29 04:23:53;;;;;;;50.47;30.90;;;9.80;99.90;;;;;;5131118;28;20448;-62
2023/04/29 04:26:20;;;;;;;53.87;33.23;;;9.80;99.90;;;;;;5131055;28;20199;-61
2023/04/29 04:28:48;;;;;;;51.15;31.85;;;9.80;99.90;;;;;;5131900;28;20937;-61
2023/04/29 04:31:15;;;;;;;50.03;31.65;;;9.80;99.90;;;;;;5130808;27;20230;-62
2023/04/29 04:33:42;;;;;;;53.03;30.50;;;9.80;99.90;;;;;;5130999;28;20203;-61
2023/04/29 04:36:08;;;;;;;58.75;34.72;;;9.80;99.90;;;;;;5131134;28;20207;-61
2023/04/29 04:38:35;;;;;;;60.38;33.60;;;9.80;99.90;;;;;;5130940;28;20226;-61
2023/04/29 04:41:02;;;;;;;49.60;30.70;;;9.80;99.90;;;;;;5130569;28;20203;-60
2023/04/29 04:43:29;;;;;;;60.42;35.53;;;9.80;99.90;;;;;;5130645;27;20219;-61
2023/04/29 04:45:59;;;;;;;57.10;33.08;;;9.80;99.90;;;;;;5130855;28;20543;-61
2023/04/29 04:48:26;;;;;;;54.92;32.90;;;9.70;99.90;;;;;;5131052;28;20199;-62
2023/04/29 04:50:53;;;;;;;60.55;35.83;;;9.70;99.90;;;;;;5130667;28;20665;-61
2023/04/29 04:53:21;;;;;;;53.97;33.90;;;9.70;99.90;;;;;;5130792;27;20223;-61
2023/04/29 04:55:48;;;;;;;63.63;37.22;;;9.70;99.90;;;;;;5130914;28;20199;-61
2023/04/29 04:58:15;;;;;;;68.83;38.50;;;9.70;99.90;;;;;;5133441;28;20221;-63
2023/04/29 05:00:44;;;;;;;65.28;39.10;;;9.70;99.90;;;;;;5132566;28;20528;-62
2023/04/29 05:03:12;;;;;;;54.88;33.97;;;9.60;99.90;;;;;;5130703;27;20302;-61
2023/04/29 05:05:39;;;;;;;59.50;37.15;;;9.60;99.90;;;;;;5130581;28;20211;-63
2023/04/29 05:08:06;;;;;;;67.38;37.95;;;9.60;99.90;;;;;;5130604;28;20206;-61
2023/04/29 05:10:36;;;;;;;64.80;36.73;;;9.60;99.90;;;;;;5129878;28;20595;-61
2023/04/29 05:13:02;;;;;;;60.42;39.00;;;9.50;99.90;;;;;;5130295;27;20997;-61
2023/04/29 05:15:29;;;;;;;56.72;35.70;;;9.50;99.90;;;;;;5130132;28;20548;-61
2023/04/29 05:17:56;;;;;;;59.85;36.13;;;9.50;99.90;;;;;;5129845;28;20592;-62
2023/04/29 05:20:24;;;;;;;50.63;31.00;;;9.50;99.90;;;;;;5131185;28;20191;-62
2023/04/29 05:22:51;;;;;;;49.13;32.78;;;9.50;99.90;;;;;;5117648;28;20215;-61
2023/04/29 05:25:18;;;;;;;54.15;36.47;;;9.50;99.90;;;;;;5117422;28;20668;-59
2023/04/29 05:27:45;;;;;;;51.72;34.70;;;9.50;99.90;;;;;;5117022;28;20203;-61
2023/04/29 05:30:12;;;;;;;48.63;34.28;;;9.40;99.90;;;;;;5116991;28;20222;-60
2023/04/29 05:32:39;;;;;;;55.30;34.75;;;9.40;99.90;;;;;;5117145;28;20716;-61
2023/04/29 05:35:07;;;;;;;51.55;35.28;;;9.40;99.90;;;;;;5116457;28;20204;-61
2023/04/29 05:37:35;;;;;;;51.97;34.33;;;9.40;99.90;;;;;;5116475;28;20210;-63
2023/04/29 05:40:02;;;;;;;51.35;32.65;;;9.50;99.90;;;;;;5116545;28;20563;-60
2023/04/29 05:42:29;;;;;;;50.28;32.42;;;9.50;99.90;;;;;;5116051;28;20223;-61
2023/04/29 05:44:56;;;;;;;44.45;28.73;;;9.50;99.90;;;;;;5117532;28;20196;-61
2023/04/29 05:47:22;;;;;;;47.10;29.95;;;9.50;99.90;;;;;;5122026;28;20211;-62
2023/04/29 05:49:49;;;;;;;43.33;31.00;;;9.50;99.90;;;;;;5118803;28;20206;-61
2023/04/29 05:52:16;;;;;;;40.35;27.50;;;9.50;99.90;;;;;;5115944;28;20265;-61
2023/04/29 05:54:44;;;;;;;44.00;29.65;;;9.50;99.90;;;;;;5116326;28;20199;-61
2023/04/29 05:57:11;;;;;;;41.67;27.45;;;9.50;99.90;;;;;;5116054;28;20196;-62
2023/04/29 05:59:37;;;;;;;38.67;27.40;;;9.50;99.90;;;;;;5116422;28;20203;-61
2023/04/29 06:02:04;;;;;;;36.90;25.05;;;9.40;99.90;;;;;;5116820;28;20246;-62
2023/04/29 06:04:31;;;;;;;41.45;28.10;;;9.40;99.90;;;;;;5116841;28;20199;-61
2023/04/29 06:06:58;;;;;;;37.97;26.33;;;9.40;99.90;;;;;;5117473;28;20203;-62
2023/04/29 06:09:25;;;;;;;37.30;24.20;;;9.40;99.90;;;;;;5117528;28;20200;-61
2023/04/29 06:11:53;;;;;;;37.28;25.92;;;9.40;99.90;;;;;;5116922;28;20281;-62
2023/04/29 06:14:20;;;;;;;41.20;26.75;;;9.40;99.90;;;;;;5118460;28;20719;-62
2023/04/29 06:16:47;;;;;;;34.15;24.90;;;9.40;99.90;;;;;;5117726;28;20202;-61
2023/04/29 06:19:14;;;;;;;38.78;25.58;;;9.50;99.90;;;;;;5118264;28;20564;-62
2023/04/29 06:21:41;;;;;;;34.13;24.52;;;9.50;99.90;;;;;;5117828;28;20266;-63
2023/04/29 06:24:08;;;;;;;35.83;24.27;;;9.50;99.90;;;;;;5117230;28;20207;-62
2023/04/29 06:26:35;;;;;;;35.03;24.70;;;9.60;99.90;;;;;;5117726;28;20571;-62
2023/04/29 06:29:03;;;;;;;31.85;23.27;;;9.60;99.90;;;;;;5117145;28;20202;-62
2023/04/29 06:31:30;;;;;;;35.20;24.53;;;9.70;99.90;;;;;;5116391;28;20223;-63
2023/04/29 06:33:57;;;;;;;37.53;23.50;;;9.70;99.90;;;;;;5115238;28;20451;-62
2023/04/29 06:36:27;;;;;;;33.00;23.15;;;9.70;99.90;;;;;;5117040;28;20207;-62
2023/04/29 06:38:53;;;;;;;39.53;24.13;;;9.80;99.90;;;;;;5116853;28;20611;-62
2023/04/29 06:41:20;;;;;;;29.70;21.63;;;9.80;99.90;;;;;;5116383;28;20219;-61
2023/04/29 06:43:47;;;;;;;26.98;20.58;;;9.80;99.90;;;;;;5120447;28;20207;-63
2023/04/29 06:46:15;;;;;;;31.58;22.40;;;9.80;99.90;;;;;;5118052;28;20200;-62
2023/04/29 06:48:42;;;;;;;33.03;22.23;;;9.80;99.90;;;;;;5115039;28;20212;-62
2023/04/29 06:51:09;;;;;;;29.40;22.45;;;9.80;99.90;;;;;;5115782;28;20219;-62
2023/04/29 06:53:35;;;;;;;26.77;21.85;;;9.80;99.90;;;;;;5115608;28;20226;-63
2023/04/29 06:56:02;;;;;;;27.95;21.40;;;9.80;99.90;;;;;;5115685;28;20688;-62
2023/04/29 06:58:29;;;;;;;31.33;21.52;;;9.80;99.90;;;;;;5115712;28;20210;-62
2023/04/29 07:00:56;;;;;;;29.17;20.95;;;9.90;99.90;;;;;;5115579;28;20199;-61
2023/04/29 07:03:24;;;;;;;29.25;20.85;;;9.90;99.90;;;;;;5116545;28;20226;-62
2023/04/29 07:05:51;;;;;;;28.20;20.75;;;10.10;99.90;;;;;;5117189;28;20204;-62
2023/04/29 07:08:17;;;;;;;26.65;19.77;;;10.20;99.90;;;;;;5117850;28;20210;-62
2023/04/29 07:10:44;;;;;;;25.75;19.85;;;10.20;99.90;;;;;;5117250;28;20231;-61
2023/04/29 07:13:11;;;;;;;23.30;18.40;;;10.40;99.90;;;;;;5118538;28;20244;-61
2023/04/29 07:15:38;;;;;;;20.67;18.47;;;10.50;99.90;;;;;;5118568;28;20453;-61
2023/04/29 07:18:05;;;;;;;20.97;17.33;;;10.50;99.90;;;;;;5117067;28;20447;-61
2023/04/29 07:20:36;;;;;;;22.80;16.30;;;10.70;99.90;;;;;;5117373;28;20442;-62
2023/04/29 07:23:02;;;;;;;20.20;16.47;;;10.80;99.90;;;;;;5118858;28;20461;-61
2023/04/29 07:25:29;;;;;;;18.50;16.50;;;10.80;99.90;;;;;;5118658;28;20446;-62
2023/04/29 07:27:56;;;;;;;19.00;15.40;;;10.90;99.90;;;;;;5118861;28;20536;-62
2023/04/29 07:30:23;;;;;;;20.03;16.37;;;11.00;99.90;;;;;;5118676;28;20453;-61
2023/04/29 07:32:50;;;;;;;18.10;15.27;;;11.10;99.90;;;;;;5117547;28;20517;-61
2023/04/29 07:35:17;;;;;;;16.87;14.47;;;11.20;99.90;;;;;;5118521;28;20821;-62
2023/04/29 07:37:45;;;;;;;17.03;15.23;;;11.30;99.90;;;;;;5118322;28;20436;-62
2023/04/29 07:40:13;;;;;;;16.47;14.77;;;11.50;99.90;;;;;;5116923;28;21004;-61
2023/04/29 07:42:40;;;;;;;16.30;13.90;;;11.50;99.90;;;;;;5116249;28;20457;-62
2023/04/29 07:45:08;;;;;;;16.73;14.20;;;11.60;99.90;;;;;;5117518;28;20442;-62
2023/04/29 07:47:35;;;;;;;16.63;14.70;;;11.60;99.90;;;;;;5114031;28;20946;-62
2023/04/29 07:50:02;;;;;;;16.57;14.87;;;11.70;99.90;;;;;;5114769;28;20443;-62
2023/04/29 07:52:29;;;;;;;17.27;14.00;;;11.70;99.90;;;;;;5114059;28;20485;-63
2023/04/29 07:54:57;;;;;;;16.67;14.37;;;11.80;99.90;;;;;;5113999;28;20441;-62
2023/04/29 07:57:23;;;;;;;15.00;13.50;;;12.00;99.90;;;;;;5114217;28;20449;-62
2023/04/29 07:59:52;;;;;;;14.70;12.50;;;12.10;99.90;;;;;;5114203;28;20441;-63
2023/04/29 08:02:19;;;;;;;14.70;13.20;;;12.10;99.90;;;;;;5114065;28;20461;-63
2023/04/29 08:04:46;;;;;;;14.93;12.40;;;12.10;99.90;;;;;;5103770;22;20497;-67
2023/04/29 08:07:13;;;;;;;15.40;12.37;;;12.10;99.90;;;;;;5073829;28;20488;-66
2023/04/29 08:09:40;;;;;;;13.87;12.40;;;12.10;99.90;;;;;;5074433;28;20447;-66
2023/04/29 08:12:08;;;;;;;13.90;12.50;;;12.10;99.90;;;;;;5074024;28;20515;-66
2023/04/29 08:14:35;;;;;;;13.20;11.53;;;12.20;99.90;;;;;;5073717;28;20470;-67
2023/04/29 08:17:01;;;;;;;11.90;10.70;;;12.10;99.90;;;;;;5073262;28;20810;-65
2023/04/29 08:19:28;;;;;;;13.00;11.60;;;12.20;99.90;;;;;;5073069;28;20438;-65
2023/04/29 08:21:55;;;;;;;13.03;10.30;;;12.30;99.90;;;;;;5073016;28;20440;-66
2023/04/29 08:24:22;;;;;;;12.87;11.00;;;12.50;99.90;;;;;;5072761;28;20475;-66
2023/04/29 08:26:49;;;;;;;12.83;11.20;;;12.70;99.90;;;;;;5073316;28;20513;-65
2023/04/29 08:29:17;;;;;;;11.20;10.20;;;12.90;99.90;;;;;;5073461;28;20449;-66
2023/04/29 08:31:44;;;;;;;13.60;11.37;;;13.10;99.90;;;;;;5073230;28;20479;-65
2023/04/29 08:34:10;;;;;;;12.93;10.70;;;13.20;99.90;;;;;;5072809;28;20546;-65
2023/04/29 08:36:37;;;;;;;11.80;10.57;;;13.40;99.90;;;;;;5073115;28;20487;-65
2023/04/29 08:39:04;;;;;;;11.63;9.63;;;13.50;99.90;;;;;;5072994;28;20458;-66
2023/04/29 08:41:32;;;;;;;11.40;9.73;;;13.60;99.90;;;;;;5073177;28;20450;-66
2023/04/29 08:43:59;;;;;;;11.27;9.90;;;13.70;99.90;;;;;;5072544;28;20467;-65
2023/04/29 08:46:28;;;;;;;10.73;9.73;;;13.70;99.90;;;;;;5073383;28;20530;-66
2023/04/29 08:48:56;;;;;;;10.73;9.70;;;13.60;99.90;;;;;;5073115;28;20512;-67
2023/04/29 08:51:23;;;;;;;13.00;9.90;;;13.60;99.90;;;;;;5073119;28;20645;-65
2023/04/29 08:53:50;;;;;;;9.93;8.17;;;13.60;99.90;;;;;;5073392;28;20467;-66
2023/04/29 08:56:19;;;;;;;11.77;8.90;;;13.70;99.90;;;;;;5073678;28;20492;-65
2023/04/29 08:58:46;;;;;;;10.90;9.00;;;13.70;99.90;;;;;;5076654;28;20471;-65
2023/04/29 09:01:14;;;;;;;12.70;10.20;;;13.70;99.90;;;;;;5077101;28;20542;-65
2023/04/29 09:03:49;;;;;;;11.03;9.93;;;13.80;99.90;;;;;;5076248;28;20462;-65
2023/04/29 09:06:17;;;;;;;9.40;8.13;;;14.00;99.90;;;;;;5076405;28;20433;-66
2023/04/29 09:08:44;;;;;;;10.23;8.43;;;14.20;99.90;;;;;;5076651;28;20447;-66
2023/04/29 09:11:11;;;;;;;8.43;7.63;;;14.20;99.20;;;;;;5076041;28;20479;-67
2023/04/29 09:13:38;;;;;;;11.57;8.13;;;14.30;98.70;;;;;;5075822;28;20580;-67
2023/04/29 09:16:10;;;;;;;9.53;8.50;;;14.40;97.80;;;;;;5075884;28;20447;-66
2023/04/29 09:18:46;;;;;;;10.73;8.40;;;14.60;96.60;;;;;;5076197;28;20439;-66
2023/04/29 09:21:14;;;;;;;9.47;8.63;;;14.60;95.30;;;;;;5076524;28;20465;-66
2023/04/29 09:23:41;;;;;;;12.10;8.93;;;14.50;94.10;;;;;;5075918;28;20478;-66
2023/04/29 09:26:08;;;;;;;12.03;9.30;;;14.40;94.00;;;;;;5076646;28;20454;-67
2023/04/29 09:28:35;;;;;;;11.00;9.10;;;14.20;94.40;;;;;;5076034;28;20469;-66
2023/04/29 09:31:05;;;;;;;10.27;8.47;;;14.00;95.10;;;;;;5076586;28;20443;-67
2023/04/29 09:33:32;;;;;;;8.60;7.80;;;13.90;95.70;;;;;;5075880;28;20500;-66
2023/04/29 09:36:00;;;;;;;10.30;7.63;;;13.90;95.90;;;;;;5076115;28;20497;-66
2023/04/29 09:38:27;;;;;;;9.93;8.93;;;13.90;95.80;;;;;;5076722;28;20465;-65
2023/04/29 09:40:55;;;;;;;11.60;8.97;;;13.70;95.60;;;;;;5076796;28;20457;-65
2023/04/29 09:43:22;;;;;;;9.90;8.93;;;13.60;96.60;;;;;;5076218;28;20454;-66
2023/04/29 09:45:49;;;;;;;9.73;8.70;;;13.40;97.50;;;;;;5076465;28;20842;-67
2023/04/29 09:48:17;;;;;;;11.13;9.93;;;13.30;98.20;;;;;;5075911;28;20455;-65
2023/04/29 09:50:45;;;;;;;11.93;9.33;;;13.20;98.60;;;;;;5076085;28;20546;-66
2023/04/29 09:53:28;;;;;;;11.63;9.50;;;13.00;99.40;;;;;;5075283;28;20988;-66
2023/04/29 09:56:00;;;;;;;13.83;9.50;;;13.00;99.90;;;;;;5075675;28;20431;-66
2023/04/29 09:58:35;;;;;;;13.30;10.97;;;13.00;99.90;;;;;;5075634;28;20443;-66
2023/04/29 10:01:03;;;;;;;12.67;10.93;;;13.10;99.90;;;;;;5075532;28;20501;-66
2023/04/29 10:03:33;;;;;;;10.27;9.20;;;13.40;99.90;;;;;;5075516;28;20443;-66
2023/04/29 10:06:01;;;;;;;11.77;9.60;;;13.60;99.50;;;;;;5075453;28;20435;-67
2023/04/29 10:08:31;;;;;;;14.87;10.90;;;13.70;97.50;;;;;;5075028;28;20957;-66
2023/04/29 10:11:01;;;;;;;14.40;9.30;;;13.70;96.50;;;;;;5075242;28;20818;-67
2023/04/29 10:13:29;;;;;;;12.33;9.90;;;13.70;95.70;;;;;;5075123;28;20439;-67
2023/04/29 10:16:02;;;;;;;12.47;9.93;;;13.80;95.00;;;;;;5075598;28;20809;-67
2023/04/29 10:18:35;;;;;;;14.57;9.97;;;13.90;94.10;;;;;;5075381;28;20501;-66
2023/04/29 10:21:04;;;;;;;11.37;9.40;;;13.90;93.90;;;;;;5075402;28;20481;-67
2023/04/29 10:23:33;;;;;;;11.33;10.07;;;13.90;93.10;;;;;;5075028;28;20811;-65
2023/04/29 10:26:02;;;;;;;10.60;9.57;;;13.80;93.00;;;;;;5074773;28;20443;-66
2023/04/29 10:28:31;;;;;;;14.23;10.63;;;13.70;92.80;;;;;;5074925;28;20442;-66
2023/04/29 10:31:01;;;;;;;14.57;9.57;;;13.70;93.80;;;;;;5074705;28;20449;-66
2023/04/29 10:33:32;;;;;;;15.30;11.00;;;14.00;94.00;;;;;;5074721;28;20490;-67
2023/04/29 10:36:00;;;;;;;11.13;9.67;;;14.50;91.90;;;;;;5074932;28;20412;-65
2023/04/29 10:38:31;;;;;;;9.70;8.70;;;14.90;89.30;;;;;;5074805;28;20509;-66
2023/04/29 10:41:02;;;;;;;11.27;9.50;;;15.20;85.40;;;;;;5074830;28;20442;-66
2023/04/29 10:43:30;;;;;;;13.97;9.93;;;15.30;81.40;;;;;;5075092;28;20477;-66
2023/04/29 10:46:21;;;;;;;12.57;9.70;;;15.30;79.80;;;;;;5074408;28;20493;-67
2023/04/29 10:48:51;;;;;;;9.47;8.47;;;15.30;79.10;;;;;;5074422;28;20472;-68
2023/04/29 10:51:40;;;;;;;10.73;8.87;;;15.30;77.90;;;;;;5074047;28;20500;-66
2023/04/29 10:54:09;;;;;;;12.33;9.37;;;15.20;77.30;;;;;;5070147;28;20479;-66
2023/04/29 10:56:48;;;;;;;11.57;9.47;;;15.20;77.50;;;;;;5074305;28;20847;-66
2023/04/29 10:59:16;;;;;;;10.37;8.50;;;15.10;76.30;;;;;;5075630;28;20428;-66
2023/04/29 11:01:48;;;;;;;10.60;8.60;;;15.00;74.90;;;;;;5075202;28;20442;-66
2023/04/29 11:04:15;;;;;;;10.00;8.97;;;15.00;75.00;;;;;;5075803;28;20485;-67
2023/04/29 11:06:46;;;;;;;11.63;8.50;;;15.10;74.50;;;;;;5074873;28;20446;-66
2023/04/29 11:09:15;;;;;;;9.50;8.03;;;15.20;73.80;;;;;;5074492;28;20467;-66
2023/04/29 11:11:48;;;;;;;9.50;7.57;;;15.30;73.40;;;;;;5073915;28;20483;-65
2023/04/29 11:14:21;;;;;;;8.10;7.30;;;15.30;72.90;;;;;;5074019;28;20463;-66
2023/04/29 11:16:49;;;;;;;7.73;7.03;;;15.40;71.00;;;;;;5073961;28;20453;-66
2023/04/29 11:19:17;;;;;;;9.70;8.00;;;15.50;70.00;;;;;;5073133;28;20975;-68
2023/04/29 11:21:46;;;;;;;7.93;7.17;;;15.60;69.40;;;;;;5074729;28;20443;-68
2023/04/29 11:24:16;;;;;;;10.80;7.50;;;15.70;68.50;;;;;;5074716;28;20561;-65
2023/04/29 11:26:45;;;;;;;8.50;7.60;;;15.70;66.50;;;;;;5073636;28;20439;-66
2023/04/29 11:29:13;;;;;;;9.07;8.10;;;15.40;65.10;;;;;;5073502;28;20500;-66
2023/04/29 11:31:40;;;;;;;7.53;6.77;;;15.30;65.90;;;;;;5073782;28;20439;-66
2023/04/29 11:34:07;;;;;;;7.80;7.00;;;15.40;65.80;;;;;;5074040;28;20459;-67
2023/04/29 11:36:34;;;;;;;8.70;6.93;;;15.50;65.00;;;;;;5074303;28;20455;-65
2023/04/29 11:39:02;;;;;;;9.17;7.70;;;15.70;63.20;;;;;;5073907;28;20869;-68
2023/04/29 11:41:30;;;;;;;8.87;7.23;;;15.70;63.20;;;;;;5073448;28;20451;-65
2023/04/29 11:43:57;;;;;;;13.00;7.63;;;15.80;63.20;;;;;;5073584;28;20466;-64
2023/04/29 11:46:27;;;;;;;11.17;7.40;;;15.80;62.40;;;;;;5073765;28;20447;-66
2023/04/29 11:48:54;;;;;;;8.57;7.57;;;15.70;62.30;;;;;;5075530;28;20451;-69
2023/04/29 11:51:21;;;;;;;11.60;8.30;;;15.60;62.40;;;;;;5073574;28;20446;-69
2023/04/29 11:53:48;;;;;;;7.77;7.03;;;15.60;63.20;;;;;;5074415;28;20537;-69
2023/04/29 11:56:15;;;;;;;8.30;7.50;;;15.70;63.20;;;;;;5073936;28;20531;-69
2023/04/29 11:58:43;;;;;;;7.93;7.13;;;15.80;62.80;;;;;;5074364;28;20451;-69
2023/04/29 12:01:10;;;;;;;10.00;6.97;;;15.80;62.00;;;;;;5074053;28;20817;-69
2023/04/29 12:03:39;;;;;;;9.20;7.90;;;16.10;62.20;;;;;;5073331;28;20817;-69
2023/04/29 12:06:06;;;;;;;6.70;6.10;;;16.60;60.20;;;;;;5073877;28;20469;-69
2023/04/29 12:08:33;;;;;;;9.20;7.27;;;16.70;59.20;;;;;;5073507;28;20921;-69
2023/04/29 12:11:01;;;;;;;7.23;6.50;;;16.40;59.30;;;;;;5073417;28;20520;-69
2023/04/29 12:13:29;;;;;;;6.73;6.10;;;16.00;59.70;;;;;;5073842;28;20490;-66
2023/04/29 12:15:58;;;;;;;7.47;6.53;;;15.80;60.70;;;;;;5075536;28;20551;-67
2023/04/29 12:18:26;;;;;;;8.30;7.30;;;15.70;61.00;;;;;;5074785;28;20535;-67
2023/04/29 12:20:55;;;;;;;7.40;6.63;;;15.80;61.30;;;;;;5074721;28;20453;-67
2023/04/29 12:23:25;;;;;;;8.40;6.70;;;15.80;61.60;;;;;;5074414;28;20443;-66
2023/04/29 12:25:53;;;;;;;6.17;5.57;;;15.90;60.80;;;;;;5073825;28;20454;-65
2023/04/29 12:28:21;;;;;;;6.87;6.00;;;15.90;60.20;;;;;;5073330;28;20937;-66
2023/04/29 12:30:48;;;;;;;7.43;5.70;;;15.80;60.00;;;;;;5073847;28;20451;-67
2023/04/29 12:33:20;;;;;;;14.30;6.87;;;15.80;60.20;;;;;;5077474;28;20489;-65
2023/04/29 12:35:48;;;;;;;11.10;7.00;;;15.70;59.80;;;;;;5078295;28;20882;-65
2023/04/29 12:38:20;;;;;;;8.33;5.60;;;15.70;59.90;;;;;;5078436;28;20488;-66
2023/04/29 12:40:47;;;;;;;7.43;6.60;;;15.70;59.60;;;;;;5078532;28;20432;-65